createdAt,value
2023-02-25T00:00:56.911Z,1.08
2023-02-25T00:02:04.056Z,0.60
2023-02-25T00:03:07.525Z,1.13
2023-02-25T00:04:10.451Z,1.08
2023-02-25T00:05:12.687Z,1.15
2023-02-25T00:06:16.174Z,0.82
2023-02-25T00:07:18.115Z,0.80
2023-02-25T00:08:21.014Z,0.77
2023-02-25T00:09:23.227Z,0.90
2023-02-25T00:10:26.180Z,0.65
2023-02-25T00:11:30.273Z,0.60
2023-02-25T00:12:32.191Z,0.70
2023-02-25T00:13:37.140Z,0.98
2023-02-25T00:14:40.594Z,0.70
2023-02-25T00:15:43.500Z,0.70
2023-02-25T00:16:45.778Z,0.60
2023-02-25T00:17:49.847Z,0.85
2023-02-25T00:18:54.577Z,0.70
2023-02-25T00:19:57.569Z,0.98
2023-02-25T00:21:00.312Z,1.02
2023-02-25T00:22:04.100Z,0.70
2023-02-25T00:23:06.046Z,0.82
2023-02-25T00:24:16.269Z,0.60
2023-02-25T00:25:18.964Z,0.80
2023-02-25T00:26:23.376Z,0.82
2023-02-25T00:27:25.694Z,0.82
2023-02-25T00:28:29.068Z,0.90
2023-02-25T00:29:32.869Z,0.90
2023-02-25T00:30:36.567Z,0.80
2023-02-25T00:31:38.875Z,0.90
2023-02-25T00:32:41.967Z,0.93
2023-02-25T00:33:43.960Z,1.08
2023-02-25T00:34:47.360Z,0.90
2023-02-25T00:35:49.992Z,1.00
2023-02-25T00:36:54.542Z,1.00
2023-02-25T00:38:01.405Z,1.02
2023-02-25T00:39:13.291Z,0.85
2023-02-25T00:40:15.406Z,1.27
2023-02-25T00:41:20.735Z,1.30
2023-02-25T00:42:22.757Z,1.20
2023-02-25T00:43:25.705Z,1.45
2023-02-25T00:44:27.645Z,1.00
2023-02-25T00:45:31.944Z,1.40
2023-02-25T00:46:34.140Z,1.10
2023-02-25T00:47:37.328Z,1.33
2023-02-25T00:48:40.189Z,1.45
2023-02-25T00:49:43.560Z,1.42
2023-02-25T00:50:45.501Z,1.13
2023-02-25T00:51:48.419Z,1.40
2023-02-25T00:52:50.396Z,1.48
2023-02-25T00:53:54.150Z,1.30
2023-02-25T00:54:56.142Z,1.63
2023-02-25T00:56:02.879Z,1.80
2023-02-25T00:57:04.910Z,1.55
2023-02-25T00:58:07.849Z,1.20
2023-02-25T00:59:09.752Z,1.85
2023-02-25T01:00:16.342Z,1.40
2023-02-25T01:01:22.248Z,2.13
2023-02-25T01:02:25.410Z,1.67
2023-02-25T01:03:27.716Z,1.50
2023-02-25T01:04:30.962Z,1.98
2023-02-25T01:05:33.065Z,1.70
2023-02-25T01:06:37.586Z,2.15
2023-02-25T01:07:39.686Z,1.85
2023-02-25T01:08:42.941Z,2.08
2023-02-25T01:09:44.903Z,2.20
2023-02-25T01:10:48.699Z,2.53
2023-02-25T01:11:50.827Z,1.65
2023-02-25T01:12:53.770Z,1.65
2023-02-25T01:13:56.880Z,2.40
2023-02-25T01:15:00.190Z,2.42
2023-02-25T01:16:11.596Z,1.95
2023-02-25T01:17:16.035Z,2.22
2023-02-25T01:18:20.502Z,2.10
2023-02-25T01:19:26.687Z,2.35
2023-02-25T01:20:29.976Z,2.80
2023-02-25T01:21:35.122Z,2.88
2023-02-25T01:22:41.716Z,2.80
2023-02-25T01:23:45.417Z,2.95
2023-02-25T01:24:47.367Z,2.88
2023-02-25T01:25:50.252Z,2.35
2023-02-25T01:26:54.386Z,2.72
2023-02-25T01:27:57.966Z,2.90
2023-02-25T01:29:00.137Z,2.80
2023-02-25T01:30:03.111Z,2.15
2023-02-25T01:31:08.232Z,2.55
2023-02-25T01:32:13.892Z,2.60
2023-02-25T01:33:17.396Z,2.90
2023-02-25T01:34:20.524Z,2.88
2023-02-25T01:35:22.533Z,2.53
2023-02-25T01:36:25.934Z,2.30
2023-02-25T01:37:27.863Z,2.85
2023-02-25T01:38:31.188Z,2.38
2023-02-25T01:39:34.067Z,3.10
2023-02-25T01:40:37.938Z,2.28
2023-02-25T01:41:39.951Z,2.55
2023-02-25T01:42:42.896Z,2.95
2023-02-25T01:44:03.167Z,3.00
2023-02-25T01:45:33.640Z,2.28
2023-02-25T01:46:36.339Z,3.58
2023-02-25T01:47:41.642Z,2.55
2023-02-25T01:48:44.939Z,2.58
2023-02-25T01:49:48.132Z,2.20
2023-02-25T01:50:52.209Z,2.50
2023-02-25T01:51:58.276Z,2.85
2023-02-25T01:53:02.690Z,2.53
2023-02-25T01:54:07.391Z,3.08
2023-02-25T01:55:10.875Z,2.70
2023-02-25T01:56:18.168Z,2.50
2023-02-25T01:57:21.127Z,2.70
2023-02-25T01:58:24.358Z,2.88
2023-02-25T01:59:29.202Z,2.58
2023-02-25T02:00:34.049Z,2.40
2023-02-25T02:01:40.730Z,2.35
2023-02-25T02:02:44.736Z,1.83
2023-02-25T02:03:50.712Z,2.00
2023-02-25T02:04:54.059Z,2.40
2023-02-25T02:06:02.942Z,1.90
2023-02-25T02:07:06.094Z,2.63
2023-02-25T02:08:10.136Z,2.25
2023-02-25T02:09:15.284Z,2.15
2023-02-25T02:10:19.721Z,2.35
2023-02-25T02:11:21.707Z,2.03
2023-02-25T02:12:26.631Z,2.20
2023-02-25T02:13:29.304Z,2.35
2023-02-25T02:14:37.108Z,2.10
2023-02-25T02:15:43.528Z,2.17
2023-02-25T02:17:06.739Z,2.03
2023-02-25T02:18:10.094Z,2.00
2023-02-25T02:19:28.887Z,2.00
2023-02-25T02:20:37.321Z,2.30
2023-02-25T02:21:54.855Z,1.90
2023-02-25T02:23:22.080Z,2.10
2023-02-25T02:24:53.181Z,2.17
2023-02-25T02:26:35.042Z,2.22
2023-02-25T02:28:11.623Z,2.38
2023-02-25T02:29:48.936Z,2.55
2023-02-25T02:31:17.486Z,2.30
2023-02-25T02:32:29.553Z,2.25
2023-02-25T02:33:44.206Z,2.13
2023-02-25T02:34:52.797Z,2.03
2023-02-25T02:36:03.141Z,2.03
2023-02-25T02:37:16.829Z,2.47
2023-02-25T02:38:25.832Z,1.85
2023-02-25T02:39:33.659Z,2.20
2023-02-25T02:40:44.552Z,2.22
2023-02-25T02:41:50.390Z,2.25
2023-02-25T02:43:06.676Z,1.80
2023-02-25T02:44:16.127Z,2.20
2023-02-25T02:45:23.688Z,2.00
2023-02-25T02:46:33.836Z,2.10
2023-02-25T02:47:39.907Z,1.70
2023-02-25T02:48:44.779Z,1.35
2023-02-25T02:49:52.663Z,1.88
2023-02-25T02:50:58.209Z,1.83
2023-02-25T02:52:04.806Z,1.65
2023-02-25T02:53:10.953Z,1.50
2023-02-25T02:54:16.255Z,1.52
2023-02-25T02:55:22.592Z,1.63
2023-02-25T02:56:28.321Z,1.92
2023-02-25T02:57:32.847Z,1.80
2023-02-25T02:58:39.760Z,1.33
2023-02-25T02:59:47.466Z,1.75
2023-02-25T03:00:55.664Z,1.40
2023-02-25T03:02:05.538Z,1.48
2023-02-25T03:03:13.719Z,1.58
2023-02-25T03:04:21.392Z,1.50
2023-02-25T03:05:28.664Z,1.75
2023-02-25T03:06:33.615Z,1.85
2023-02-25T03:07:42.356Z,1.70
2023-02-25T03:08:49.387Z,2.15
2023-02-25T03:09:54.225Z,2.08
2023-02-25T03:10:57.294Z,1.90
2023-02-25T03:11:59.426Z,1.95
2023-02-25T03:13:02.391Z,2.53
2023-02-25T03:14:04.954Z,2.00
2023-02-25T03:15:09.332Z,2.20
2023-02-25T03:16:18.728Z,1.80
2023-02-25T03:17:27.152Z,2.67
2023-02-25T03:18:38.767Z,2.05
2023-02-25T03:19:46.339Z,1.80
2023-02-25T03:20:50.973Z,2.28
2023-02-25T03:21:58.848Z,1.85
2023-02-25T03:23:06.326Z,1.42
2023-02-25T03:24:14.867Z,1.90
2023-02-25T03:25:20.838Z,2.00
2023-02-25T03:26:28.472Z,2.25
2023-02-25T03:27:35.325Z,2.17
2023-02-25T03:28:39.507Z,2.30
2023-02-25T03:29:42.291Z,2.05
2023-02-25T03:30:50.981Z,1.55
2023-02-25T03:31:57.717Z,1.80
2023-02-25T03:33:06.359Z,1.77
2023-02-25T03:34:11.829Z,1.90
2023-02-25T03:35:18.355Z,2.13
2023-02-25T03:36:25.172Z,1.45
2023-02-25T03:37:32.294Z,2.30
2023-02-25T03:38:38.134Z,1.70
2023-02-25T03:39:43.732Z,1.25
2023-02-25T03:40:48.917Z,1.77
2023-02-25T03:41:55.730Z,1.63
2023-02-25T03:43:08.276Z,1.90
2023-02-25T03:44:15.875Z,1.63
2023-02-25T03:45:18.411Z,1.35
2023-02-25T03:46:22.340Z,1.50
2023-02-25T03:47:27.218Z,2.08
2023-02-25T03:48:32.149Z,1.77
2023-02-25T03:49:40.681Z,2.20
2023-02-25T03:50:48.284Z,2.03
2023-02-25T03:51:51.826Z,1.50
2023-02-25T03:52:54.837Z,1.95
2023-02-25T03:53:56.960Z,1.83
2023-02-25T03:55:00.207Z,1.55
2023-02-25T03:56:05.504Z,1.65
2023-02-25T03:57:08.682Z,1.65
2023-02-25T03:58:10.882Z,1.48
2023-02-25T03:59:14.751Z,1.70
2023-02-25T04:00:19.724Z,1.90
2023-02-25T04:01:27.145Z,2.17
2023-02-25T04:02:33.428Z,1.98
2023-02-25T04:03:37.724Z,1.90
2023-02-25T04:04:39.730Z,1.85
2023-02-25T04:05:42.788Z,1.60
2023-02-25T04:06:44.727Z,1.98
2023-02-25T04:07:48.094Z,1.98
2023-02-25T04:08:50.371Z,1.55
2023-02-25T04:09:53.252Z,1.90
2023-02-25T04:10:55.351Z,1.67
2023-02-25T04:11:58.283Z,1.40
2023-02-25T04:13:00.238Z,1.50
2023-02-25T04:14:03.189Z,2.20
2023-02-25T04:15:06.057Z,1.77
2023-02-25T04:16:09.463Z,1.92
2023-02-25T04:17:13.078Z,1.65
2023-02-25T04:18:16.707Z,1.63
2023-02-25T04:19:20.053Z,1.55
2023-02-25T04:20:22.999Z,1.38
2023-02-25T04:21:30.258Z,1.90
2023-02-25T04:22:33.253Z,1.90
2023-02-25T04:23:36.104Z,1.60
2023-02-25T04:24:39.042Z,1.90
2023-02-25T04:25:41.065Z,1.90
2023-02-25T04:26:43.958Z,1.30
2023-02-25T04:27:46.190Z,1.30
2023-02-25T04:28:49.259Z,1.70
2023-02-25T04:29:51.225Z,1.50
2023-02-25T04:30:54.275Z,1.80
2023-02-25T04:31:56.785Z,1.70
2023-02-25T04:32:59.781Z,1.80
2023-02-25T04:34:01.752Z,1.20
2023-02-25T04:35:11.627Z,1.58
2023-02-25T04:36:23.833Z,2.30
2023-02-25T04:37:26.952Z,1.83
2023-02-25T04:38:29.878Z,1.70
2023-02-25T04:39:32.780Z,2.00
2023-02-25T04:40:35.759Z,1.65
2023-02-25T04:41:38.016Z,1.83
2023-02-25T04:42:41.447Z,1.50
2023-02-25T04:43:44.784Z,1.80
2023-02-25T04:44:47.828Z,2.20
2023-02-25T04:45:49.759Z,1.80
2023-02-25T04:46:53.102Z,1.20
2023-02-25T04:47:57.899Z,1.50
2023-02-25T04:49:01.077Z,1.58
2023-02-25T04:50:05.595Z,1.98
2023-02-25T04:51:09.162Z,2.10
2023-02-25T04:52:12.637Z,1.50
2023-02-25T04:53:15.587Z,1.58
2023-02-25T04:54:18.606Z,1.48
2023-02-25T04:55:21.812Z,1.60
2023-02-25T04:56:24.194Z,1.77
2023-02-25T04:57:27.329Z,2.25
2023-02-25T04:58:29.280Z,1.65
2023-02-25T04:59:32.292Z,2.13
2023-02-25T05:00:34.282Z,2.33
2023-02-25T05:01:37.267Z,1.52
2023-02-25T05:02:39.247Z,2.30
2023-02-25T05:03:42.578Z,1.70
2023-02-25T05:04:44.718Z,2.38
2023-02-25T05:05:48.995Z,2.20
2023-02-25T05:06:50.896Z,2.00
2023-02-25T05:07:53.789Z,2.40
2023-02-25T05:08:57.663Z,1.65
2023-02-25T05:10:00.622Z,1.65
2023-02-25T05:11:02.737Z,2.28
2023-02-25T05:12:05.985Z,1.70
2023-02-25T05:13:07.902Z,1.60
2023-02-25T05:14:11.253Z,1.85
2023-02-25T05:15:13.351Z,1.77
2023-02-25T05:16:17.546Z,2.33
2023-02-25T05:17:19.507Z,1.67
2023-02-25T05:18:23.716Z,1.95
2023-02-25T05:19:26.128Z,2.20
2023-02-25T05:20:30.485Z,1.50
2023-02-25T05:21:33.865Z,1.60
2023-02-25T05:22:36.762Z,1.73
2023-02-25T05:23:38.848Z,1.98
2023-02-25T05:24:42.019Z,1.60
2023-02-25T05:25:44.672Z,2.45
2023-02-25T05:26:48.053Z,2.35
2023-02-25T05:27:50.088Z,1.70
2023-02-25T05:28:53.884Z,1.45
2023-02-25T05:29:56.169Z,1.88
2023-02-25T05:30:59.603Z,1.83
2023-02-25T05:32:01.850Z,1.55
2023-02-25T05:33:05.124Z,2.80
2023-02-25T05:34:07.127Z,2.40
2023-02-25T05:35:11.324Z,1.75
2023-02-25T05:36:15.300Z,1.70
2023-02-25T05:37:19.600Z,2.00
2023-02-25T05:38:21.523Z,1.60
2023-02-25T05:39:24.401Z,1.50
2023-02-25T05:40:26.673Z,1.58
2023-02-25T05:41:29.740Z,1.30
2023-02-25T05:42:31.673Z,1.05
2023-02-25T05:43:35.309Z,1.30
2023-02-25T05:44:37.334Z,1.30
2023-02-25T05:45:40.324Z,1.40
2023-02-25T05:46:43.279Z,1.50
2023-02-25T05:47:45.410Z,2.17
2023-02-25T05:48:48.895Z,1.70
2023-02-25T05:49:50.816Z,1.65
2023-02-25T05:51:00.816Z,1.38
2023-02-25T05:52:02.772Z,1.52
2023-02-25T05:53:07.073Z,1.35
2023-02-25T05:54:09.019Z,2.03
2023-02-25T05:55:12.351Z,1.60
2023-02-25T05:56:17.303Z,1.52
2023-02-25T05:57:20.764Z,1.95
2023-02-25T05:58:22.841Z,1.45
2023-02-25T05:59:25.795Z,1.58
2023-02-25T06:00:27.916Z,1.50
2023-02-25T06:01:31.694Z,1.30
2023-02-25T06:02:33.844Z,1.80
2023-02-25T06:03:36.889Z,1.45
2023-02-25T06:04:38.830Z,1.30
2023-02-25T06:05:42.532Z,1.45
2023-02-25T06:06:50.158Z,1.40
2023-02-25T06:07:53.280Z,1.35
2023-02-25T06:08:57.420Z,1.98
2023-02-25T06:10:00.932Z,1.25
2023-02-25T06:11:06.241Z,2.10
2023-02-25T06:12:09.466Z,1.33
2023-02-25T06:13:12.301Z,1.40
2023-02-25T06:14:16.013Z,1.70
2023-02-25T06:15:18.504Z,1.73
2023-02-25T06:16:22.663Z,1.27
2023-02-25T06:17:25.100Z,1.25
2023-02-25T06:18:28.093Z,1.52
2023-02-25T06:19:31.019Z,1.40
2023-02-25T06:20:35.232Z,1.38
2023-02-25T06:21:38.262Z,1.05
2023-02-25T06:22:40.368Z,2.95
2023-02-25T06:23:44.995Z,1.50
2023-02-25T06:24:50.207Z,0.95
2023-02-25T06:25:53.140Z,1.15
2023-02-25T06:26:55.043Z,1.50
2023-02-25T06:27:57.986Z,1.10
2023-02-25T06:28:59.928Z,1.33
2023-02-25T06:30:03.367Z,0.80
2023-02-25T06:31:08.766Z,1.10
2023-02-25T06:32:12.862Z,1.00
2023-02-25T06:33:14.859Z,2.00
2023-02-25T06:34:18.361Z,1.23
2023-02-25T06:35:23.482Z,1.75
2023-02-25T06:36:26.998Z,1.33
2023-02-25T06:37:29.055Z,1.65
2023-02-25T06:38:33.072Z,0.90
2023-02-25T06:39:35.449Z,1.30
2023-02-25T06:40:40.615Z,1.10
2023-02-25T06:41:43.496Z,1.60
2023-02-25T06:42:45.595Z,1.05
2023-02-25T06:43:52.056Z,1.20
2023-02-25T06:44:54.101Z,0.93
2023-02-25T06:45:57.004Z,1.30
2023-02-25T06:46:59.140Z,1.17
2023-02-25T06:48:02.093Z,1.30
2023-02-25T06:49:05.029Z,1.85
2023-02-25T06:50:08.507Z,1.52
2023-02-25T06:51:12.841Z,1.45
2023-02-25T06:52:15.145Z,2.10
2023-02-25T06:53:18.583Z,1.10
2023-02-25T06:54:21.568Z,1.27
2023-02-25T06:55:23.537Z,1.40
2023-02-25T06:56:29.145Z,1.13
2023-02-25T06:57:31.120Z,1.35
2023-02-25T06:58:34.104Z,1.95
2023-02-25T06:59:36.013Z,1.33
2023-02-25T07:00:39.912Z,1.10
2023-02-25T07:01:42.892Z,1.10
2023-02-25T07:02:44.871Z,1.20
2023-02-25T07:03:47.819Z,1.60
2023-02-25T07:04:49.841Z,1.20
2023-02-25T07:05:52.807Z,1.33
2023-02-25T07:06:56.029Z,1.60
2023-02-25T07:07:58.026Z,1.42
2023-02-25T07:09:00.913Z,1.40
2023-02-25T07:10:02.826Z,1.65
2023-02-25T07:11:29.019Z,1.60
2023-02-25T07:12:33.628Z,1.60
2023-02-25T07:13:36.825Z,1.40
2023-02-25T07:14:40.150Z,1.40
2023-02-25T07:15:42.093Z,1.40
2023-02-25T07:16:45.321Z,1.48
2023-02-25T07:17:47.708Z,1.27
2023-02-25T07:18:50.868Z,1.67
2023-02-25T07:19:52.787Z,1.25
2023-02-25T07:20:56.443Z,1.30
2023-02-25T07:21:58.436Z,1.42
2023-02-25T07:23:04.308Z,1.20
2023-02-25T07:24:06.713Z,1.65
2023-02-25T07:25:11.714Z,1.10
2023-02-25T07:26:14.656Z,1.25
2023-02-25T07:27:17.659Z,1.80
2023-02-25T07:28:21.047Z,1.50
2023-02-25T07:29:24.371Z,0.90
2023-02-25T07:30:26.350Z,1.10
2023-02-25T07:31:29.826Z,1.10
2023-02-25T07:32:32.152Z,1.42
2023-02-25T07:33:35.236Z,1.38
2023-02-25T07:34:37.817Z,1.20
2023-02-25T07:35:40.736Z,1.20
2023-02-25T07:36:42.772Z,1.52
2023-02-25T07:37:45.679Z,1.23
2023-02-25T07:38:48.575Z,1.35
2023-02-25T07:39:51.522Z,1.45
2023-02-25T07:40:53.524Z,1.13
2023-02-25T07:41:56.712Z,0.90
2023-02-25T07:42:58.615Z,2.55
2023-02-25T07:44:03.247Z,1.00
2023-02-25T07:45:06.181Z,1.48
2023-02-25T07:46:10.140Z,0.70
2023-02-25T07:47:12.349Z,1.10
2023-02-25T07:48:15.254Z,1.10
2023-02-25T07:49:18.192Z,1.10
2023-02-25T07:50:20.323Z,1.10
2023-02-25T07:51:26.244Z,1.00
2023-02-25T07:52:28.763Z,1.52
2023-02-25T07:53:31.724Z,1.13
2023-02-25T07:54:34.616Z,1.63
2023-02-25T07:55:36.557Z,1.00
2023-02-25T07:56:39.866Z,1.20
2023-02-25T07:57:41.839Z,0.93
2023-02-25T07:58:44.746Z,1.55
2023-02-25T07:59:48.028Z,1.17
2023-02-25T08:00:51.095Z,1.40
2023-02-25T08:01:54.081Z,1.20
2023-02-25T08:02:56.210Z,1.42
2023-02-25T08:04:01.001Z,0.80
2023-02-25T08:05:03.107Z,1.13
2023-02-25T08:06:08.707Z,1.13
2023-02-25T08:07:11.656Z,0.88
2023-02-25T08:08:13.789Z,1.20
2023-02-25T08:09:16.794Z,1.17
2023-02-25T08:10:18.910Z,1.00
2023-02-25T08:11:23.980Z,1.17
2023-02-25T08:12:26.194Z,1.10
2023-02-25T08:13:29.107Z,1.20
2023-02-25T08:14:32.000Z,0.95
2023-02-25T08:15:35.348Z,1.30
2023-02-25T08:16:38.532Z,0.85
2023-02-25T08:17:40.449Z,0.88
2023-02-25T08:18:43.724Z,1.27
2023-02-25T08:19:46.700Z,1.55
2023-02-25T08:20:48.747Z,1.50
2023-02-25T08:21:51.681Z,0.90
2023-02-25T08:22:57.040Z,2.15
2023-02-25T08:24:00.691Z,1.10
2023-02-25T08:25:03.703Z,1.13
2023-02-25T08:26:06.412Z,0.70
2023-02-25T08:27:09.660Z,0.90
2023-02-25T08:28:11.565Z,1.30
2023-02-25T08:29:14.932Z,1.27
2023-02-25T08:30:17.542Z,1.33
2023-02-25T08:31:23.078Z,0.90
2023-02-25T08:32:27.438Z,1.40
2023-02-25T08:33:30.859Z,0.68
2023-02-25T08:34:33.875Z,1.20
2023-02-25T08:35:35.871Z,1.42
2023-02-25T08:36:38.769Z,1.00
2023-02-25T08:37:40.684Z,1.20
2023-02-25T08:38:44.560Z,1.10
2023-02-25T08:39:46.571Z,1.30
2023-02-25T08:40:49.520Z,0.95
2023-02-25T08:41:52.464Z,0.88
2023-02-25T08:42:54.687Z,1.15
2023-02-25T08:44:00.291Z,1.33
2023-02-25T08:45:02.483Z,1.38
2023-02-25T08:46:06.421Z,1.35
2023-02-25T08:47:09.800Z,1.65
2023-02-25T08:48:14.640Z,1.00
2023-02-25T08:49:17.562Z,1.30
2023-02-25T08:50:19.622Z,1.60
2023-02-25T08:51:24.374Z,1.05
2023-02-25T08:52:33.497Z,1.45
2023-02-25T08:53:43.505Z,1.02
2023-02-25T08:54:45.437Z,1.20
2023-02-25T08:55:48.423Z,1.40
2023-02-25T08:56:51.925Z,1.25
2023-02-25T08:57:54.214Z,1.63
2023-02-25T08:58:57.397Z,1.10
2023-02-25T08:59:59.352Z,1.02
2023-02-25T09:01:02.548Z,1.10
2023-02-25T09:02:06.341Z,1.30
2023-02-25T09:03:10.598Z,1.15
2023-02-25T09:04:15.164Z,1.35
2023-02-25T09:05:20.585Z,1.15
2023-02-25T09:06:24.780Z,1.10
2023-02-25T09:07:27.808Z,1.50
2023-02-25T09:08:31.449Z,1.25
2023-02-25T09:09:34.591Z,1.15
2023-02-25T09:10:49.546Z,1.25
2023-02-25T09:11:53.339Z,1.52
2023-02-25T09:12:55.296Z,1.10
2023-02-25T09:13:58.276Z,1.50
2023-02-25T09:15:00.385Z,1.27
2023-02-25T09:16:03.419Z,1.40
2023-02-25T09:17:06.483Z,1.42
2023-02-25T09:18:11.517Z,1.55
2023-02-25T09:19:15.756Z,1.00
2023-02-25T09:20:18.791Z,1.25
2023-02-25T09:21:20.990Z,1.10
2023-02-25T09:22:24.135Z,1.40
2023-02-25T09:23:26.160Z,1.30
2023-02-25T09:24:30.149Z,2.42
2023-02-25T09:25:32.232Z,1.40
2023-02-25T09:26:35.179Z,1.33
2023-02-25T09:27:38.144Z,1.35
2023-02-25T09:28:40.256Z,1.45
2023-02-25T09:29:43.147Z,1.67
2023-02-25T09:30:45.787Z,1.70
2023-02-25T09:31:49.094Z,1.65
2023-02-25T09:32:51.514Z,0.90
2023-02-25T09:33:55.874Z,1.33
2023-02-25T09:34:59.264Z,1.50
2023-02-25T09:36:08.518Z,0.88
2023-02-25T09:37:12.486Z,1.60
2023-02-25T09:38:15.402Z,1.15
2023-02-25T09:39:17.369Z,1.55
2023-02-25T09:40:22.834Z,1.88
2023-02-25T09:41:31.997Z,1.60
2023-02-25T09:42:48.403Z,1.65
2023-02-25T09:44:00.937Z,1.23
2023-02-25T09:45:04.595Z,0.93
2023-02-25T09:46:10.215Z,1.40
2023-02-25T09:47:19.432Z,1.27
2023-02-25T09:48:26.726Z,1.67
2023-02-25T09:49:36.086Z,1.48
2023-02-25T09:50:44.242Z,1.63
2023-02-25T09:51:54.872Z,2.03
2023-02-25T09:53:05.267Z,2.10
2023-02-25T09:54:17.976Z,1.30
2023-02-25T09:55:23.730Z,1.40
2023-02-25T09:56:27.737Z,1.35
2023-02-25T09:57:34.015Z,1.17
2023-02-25T09:58:40.645Z,1.10
2023-02-25T09:59:43.588Z,1.38
2023-02-25T10:00:51.286Z,1.02
2023-02-25T10:01:57.234Z,1.52
2023-02-25T10:03:08.061Z,1.00
2023-02-25T10:04:16.817Z,1.10
2023-02-25T10:05:26.831Z,1.27
2023-02-25T10:06:34.094Z,1.15
2023-02-25T10:07:46.626Z,1.35
2023-02-25T10:08:56.208Z,1.02
2023-02-25T10:10:08.293Z,1.10
2023-02-25T10:11:14.904Z,1.00
2023-02-25T10:12:27.089Z,1.35
2023-02-25T10:13:41.695Z,1.08
2023-02-25T10:15:16.842Z,1.10
2023-02-25T10:16:38.820Z,1.20
2023-02-25T10:17:48.558Z,1.42
2023-02-25T10:19:01.464Z,1.20
2023-02-25T10:20:27.417Z,1.33
2023-02-25T10:21:44.122Z,1.50
2023-02-25T10:22:55.529Z,1.55
2023-02-25T10:24:12.499Z,1.08
2023-02-25T10:25:19.542Z,1.10
2023-02-25T10:26:24.844Z,1.10
2023-02-25T10:27:32.704Z,2.53
2023-02-25T10:28:35.984Z,1.60
2023-02-25T10:29:46.390Z,1.30
2023-02-25T10:30:53.696Z,1.58
2023-02-25T10:32:00.870Z,2.38
2023-02-25T10:33:06.137Z,1.25
2023-02-25T10:34:21.838Z,1.30
2023-02-25T10:35:28.834Z,1.70
2023-02-25T10:36:35.563Z,1.15
2023-02-25T10:37:38.043Z,1.23
2023-02-25T10:38:45.313Z,1.70
2023-02-25T10:39:48.624Z,1.48
2023-02-25T10:40:53.587Z,1.00
2023-02-25T10:41:55.685Z,1.25
2023-02-25T10:43:02.367Z,1.00
2023-02-25T10:44:05.349Z,2.15
2023-02-25T10:45:12.394Z,1.60
2023-02-25T10:46:24.278Z,1.63
2023-02-25T10:47:34.387Z,0.93
2023-02-25T10:48:39.362Z,1.33
2023-02-25T10:49:41.364Z,1.13
2023-02-25T10:51:03.865Z,1.25
2023-02-25T10:52:10.241Z,1.10
2023-02-25T10:53:14.526Z,1.15
2023-02-25T10:54:17.532Z,1.52
2023-02-25T10:55:41.105Z,1.70
2023-02-25T10:56:46.106Z,1.55
2023-02-25T10:57:50.407Z,1.35
2023-02-25T10:59:04.682Z,1.25
2023-02-25T11:00:23.502Z,1.73
2023-02-25T11:01:26.611Z,1.35
2023-02-25T11:02:31.434Z,1.60
2023-02-25T11:03:39.603Z,1.00
2023-02-25T11:04:41.546Z,1.77
2023-02-25T11:05:45.903Z,1.30
2023-02-25T11:06:48.955Z,1.33
2023-02-25T11:07:50.871Z,1.40
2023-02-25T11:08:56.318Z,1.73
2023-02-25T11:10:14.107Z,1.40
2023-02-25T11:11:19.871Z,1.35
2023-02-25T11:12:22.063Z,2.08
2023-02-25T11:13:30.596Z,1.20
2023-02-25T11:14:35.434Z,1.60
2023-02-25T11:15:45.140Z,2.03
2023-02-25T11:16:49.078Z,1.40
2023-02-25T11:17:52.585Z,1.42
2023-02-25T11:19:01.525Z,2.00
2023-02-25T11:20:05.698Z,1.45
2023-02-25T11:21:14.435Z,1.52
2023-02-25T11:22:19.469Z,1.08
2023-02-25T11:23:28.109Z,1.70
2023-02-25T11:24:34.394Z,1.80
2023-02-25T11:25:39.287Z,1.35
2023-02-25T11:26:45.812Z,1.25
2023-02-25T11:27:58.499Z,1.73
2023-02-25T11:29:03.866Z,1.40
2023-02-25T11:30:08.612Z,1.67
2023-02-25T11:31:17.427Z,1.23
2023-02-25T11:32:21.630Z,0.93
2023-02-25T11:33:27.965Z,1.40
2023-02-25T11:34:32.910Z,2.00
2023-02-25T11:35:37.802Z,1.40
2023-02-25T11:36:43.378Z,1.38
2023-02-25T11:37:48.123Z,1.30
2023-02-25T11:39:03.648Z,1.25
2023-02-25T11:40:23.872Z,1.30
2023-02-25T11:41:32.166Z,1.65
2023-02-25T11:42:35.220Z,1.00
2023-02-25T11:43:40.977Z,1.00
2023-02-25T11:44:46.616Z,1.20
2023-02-25T11:45:52.799Z,2.30
2023-02-25T11:47:06.998Z,1.50
2023-02-25T11:48:18.992Z,1.80
2023-02-25T11:49:31.163Z,1.15
2023-02-25T11:50:38.740Z,1.63
2023-02-25T11:51:48.826Z,0.85
2023-02-25T11:53:01.952Z,1.30
2023-02-25T11:54:25.581Z,1.20
2023-02-25T11:55:41.664Z,1.33
2023-02-25T11:56:48.673Z,1.23
2023-02-25T11:58:02.688Z,1.33
2023-02-25T11:59:15.988Z,1.20
2023-02-25T12:00:25.638Z,0.73
2023-02-25T12:01:41.824Z,1.40
2023-02-25T12:02:53.781Z,1.60
2023-02-25T12:04:27.714Z,1.60
2023-02-25T12:05:50.361Z,1.65
2023-02-25T12:07:26.439Z,1.67
2023-02-25T12:08:44.621Z,1.35
2023-02-25T12:10:24.904Z,1.50
2023-02-25T12:11:52.220Z,1.40
2023-02-25T12:13:24.941Z,1.30
2023-02-25T12:15:12.269Z,1.10
2023-02-25T12:16:45.550Z,1.58
2023-02-25T12:18:24.033Z,0.93
2023-02-25T12:19:59.095Z,1.85
2023-02-25T12:21:38.083Z,1.10
2023-02-25T12:23:06.591Z,1.38
2023-02-25T12:24:43.443Z,1.30
2023-02-25T12:25:51.631Z,0.73
2023-02-25T12:27:34.090Z,1.30
2023-02-25T12:29:07.697Z,1.48
2023-02-25T12:30:37.441Z,0.98
2023-02-25T12:31:55.523Z,1.50
2023-02-25T12:33:10.633Z,1.85
2023-02-25T12:34:49.256Z,1.10
2023-02-25T12:36:09.691Z,1.25
2023-02-25T12:37:31.762Z,0.95
2023-02-25T12:39:09.576Z,1.15
2023-02-25T12:40:33.823Z,1.15
2023-02-25T12:41:45.075Z,1.30
2023-02-25T12:43:01.854Z,1.42
2023-02-25T12:44:24.354Z,0.90
2023-02-25T12:45:44.414Z,1.25
2023-02-25T12:47:02.020Z,1.05
2023-02-25T12:48:30.206Z,0.90
2023-02-25T12:50:06.286Z,1.17
2023-02-25T12:51:27.181Z,1.65
2023-02-25T12:52:45.504Z,0.60
2023-02-25T12:53:57.242Z,0.95
2023-02-25T12:55:19.976Z,1.05
2023-02-25T12:56:41.733Z,1.10
2023-02-25T12:57:50.563Z,1.00
2023-02-25T12:59:28.362Z,1.20
2023-02-25T13:01:12.348Z,0.90
2023-02-25T13:02:47.889Z,1.00
2023-02-25T13:04:15.255Z,1.05
2023-02-25T13:05:49.521Z,1.33
2023-02-25T13:07:14.857Z,0.88
2023-02-25T13:08:33.833Z,0.90
2023-02-25T13:09:52.831Z,1.10
2023-02-25T13:11:05.289Z,1.15
2023-02-25T13:12:27.386Z,1.17
2023-02-25T13:13:51.216Z,1.48
2023-02-25T13:15:05.661Z,1.25
2023-02-25T13:16:21.500Z,0.85
2023-02-25T13:17:48.281Z,1.10
2023-02-25T13:19:10.758Z,1.15
2023-02-25T13:20:35.607Z,1.38
2023-02-25T13:21:50.068Z,1.33
2023-02-25T13:23:03.241Z,1.83
2023-02-25T13:24:20.962Z,1.00
2023-02-25T13:25:33.960Z,1.58
2023-02-25T13:27:10.327Z,0.85
2023-02-25T13:28:26.642Z,1.20
2023-02-25T13:29:55.980Z,1.13
2023-02-25T13:31:06.086Z,1.17
2023-02-25T13:32:21.573Z,1.10
2023-02-25T13:33:37.074Z,1.00
2023-02-25T13:34:47.277Z,1.45
2023-02-25T13:35:59.422Z,1.00
2023-02-25T13:37:17.753Z,1.83
2023-02-25T13:38:35.800Z,0.80
2023-02-25T13:40:21.389Z,0.90
2023-02-25T13:41:39.246Z,0.90
2023-02-25T13:43:03.458Z,1.65
2023-02-25T13:44:28.976Z,1.33
2023-02-25T13:46:00.638Z,0.88
2023-02-25T13:47:34.239Z,0.80
2023-02-25T13:49:19.370Z,0.88
2023-02-25T13:50:54.220Z,0.50
2023-02-25T13:52:27.716Z,0.60
2023-02-25T13:53:57.205Z,1.00
2023-02-25T13:55:27.948Z,0.75
2023-02-25T13:57:07.009Z,0.68
2023-02-25T13:58:37.079Z,0.60
2023-02-25T14:00:01.850Z,0.50
2023-02-25T14:01:28.105Z,0.73
2023-02-25T14:02:51.639Z,0.60
2023-02-25T14:04:21.660Z,0.60
2023-02-25T14:05:51.634Z,1.00
2023-02-25T14:07:22.925Z,0.70
2023-02-25T14:08:54.567Z,0.68
2023-02-25T14:10:04.097Z,0.50
2023-02-25T14:11:26.831Z,1.02
2023-02-25T14:12:45.195Z,0.70
2023-02-25T14:14:12.742Z,0.60
2023-02-25T14:15:32.837Z,0.65
2023-02-25T14:16:49.401Z,0.77
2023-02-25T14:18:20.595Z,0.73
2023-02-25T14:19:36.758Z,0.60
2023-02-25T14:20:47.182Z,0.63
2023-02-25T14:22:05.894Z,0.70
2023-02-25T14:23:17.072Z,0.80
2023-02-25T14:24:26.998Z,0.82
2023-02-25T14:25:44.737Z,0.90
2023-02-25T14:26:57.497Z,0.70
2023-02-25T14:28:06.386Z,0.70
2023-02-25T14:29:21.911Z,0.70
2023-02-25T14:30:32.827Z,1.23
2023-02-25T14:31:46.088Z,0.70
2023-02-25T14:33:14.096Z,0.90
2023-02-25T14:34:49.380Z,0.90
2023-02-25T14:36:07.170Z,0.90
2023-02-25T14:37:22.549Z,0.85
2023-02-25T14:38:41.808Z,1.15
2023-02-25T14:39:54.683Z,1.15
2023-02-25T14:41:09.290Z,0.90
2023-02-25T14:42:39.143Z,0.70
2023-02-25T14:43:42.994Z,0.90
2023-02-25T14:44:54.532Z,1.13
2023-02-25T14:46:08.701Z,1.02
2023-02-25T14:47:14.807Z,0.90
2023-02-25T14:48:25.779Z,1.10
2023-02-25T14:49:35.563Z,0.80
2023-02-25T14:50:46.403Z,1.02
2023-02-25T14:54:28.344Z,0.60
2023-02-25T14:55:51.930Z,0.93
2023-02-25T14:57:10.199Z,0.75
2023-02-25T14:58:51.894Z,1.25
2023-02-25T15:00:25.735Z,0.98
2023-02-25T15:01:51.898Z,0.90
2023-02-25T15:03:07.311Z,1.35
2023-02-25T15:04:44.541Z,1.20
2023-02-25T15:06:09.434Z,0.80
2023-02-25T15:07:25.647Z,0.90
2023-02-25T15:08:53.801Z,1.05
2023-02-25T15:10:20.059Z,0.80
2023-02-25T15:11:46.704Z,1.10
2023-02-25T15:13:11.407Z,0.65